sensor_id;sensor_type;location;lat;lon;timestamp;pressure;altitude;pressure_sealevel;temperature
20730;BMP280;10526;50.850;12.928;2023-05-07T00:02:54;98232.22;;;9.57
20730;BMP280;10526;50.850;12.928;2023-05-07T00:07:16;98235.63;;;9.58
20730;BMP280;10526;50.850;12.928;2023-05-07T00:11:39;98236.41;;;9.59
20730;BMP280;10526;50.850;12.928;2023-05-07T00:16:03;98236.41;;;9.59
20730;BMP280;10526;50.850;12.928;2023-05-07T00:20:25;98238.69;;;9.60
20730;BMP280;10526;50.850;12.928;2023-05-07T00:24:47;98237.91;;;9.60
20730;BMP280;10526;50.850;12.928;2023-05-07T00:29:09;98234.13;;;9.61
20730;BMP280;10526;50.850;12.928;2023-05-07T00:33:31;98238.31;;;9.62
20730;BMP280;10526;50.850;12.928;2023-05-07T00:37:53;98229.16;;;9.63
20730;BMP280;10526;50.850;12.928;2023-05-07T00:42:17;98229.56;;;9.65
20730;BMP280;10526;50.850;12.928;2023-05-07T00:46:40;98237.53;;;9.65
20730;BMP280;10526;50.850;12.928;2023-05-07T00:51:04;98244.00;;;9.64
20730;BMP280;10526;50.850;12.928;2023-05-07T00:55:27;98237.13;;;9.63
20730;BMP280;10526;50.850;12.928;2023-05-07T00:59:50;98236.41;;;9.59
20730;BMP280;10526;50.850;12.928;2023-05-07T01:04:12;98234.88;;;9.57
20730;BMP280;10526;50.850;12.928;2023-05-07T01:08:35;98233.34;;;9.53
20730;BMP280;10526;50.850;12.928;2023-05-07T01:12:59;98234.88;;;9.50
20730;BMP280;10526;50.850;12.928;2023-05-07T01:17:23;98243.59;;;9.47
20730;BMP280;10526;50.850;12.928;2023-05-07T01:21:48;98243.22;;;9.45
20730;BMP280;10526;50.850;12.928;2023-05-07T01:26:13;98235.25;;;9.45
20730;BMP280;10526;50.850;12.928;2023-05-07T01:30:38;98239.41;;;9.39
20730;BMP280;10526;50.850;12.928;2023-05-07T01:35:05;98237.88;;;9.31
20730;BMP280;10526;50.850;12.928;2023-05-07T01:39:30;98233.72;;;9.23
20730;BMP280;10526;50.850;12.928;2023-05-07T01:43:54;98230.63;;;9.10
20730;BMP280;10526;50.850;12.928;2023-05-07T01:48:17;98225.31;;;9.07
20730;BMP280;10526;50.850;12.928;2023-05-07T01:52:39;98243.16;;;9.06
20730;BMP280;10526;50.850;12.928;2023-05-07T01:57:01;98237.84;;;9.02
20730;BMP280;10526;50.850;12.928;2023-05-07T02:01:24;98247.69;;;8.98
20730;BMP280;10526;50.850;12.928;2023-05-07T02:05:46;98245.34;;;8.90
20730;BMP280;10526;50.850;12.928;2023-05-07T02:10:32;98243.09;;;8.85
20730;BMP280;10526;50.850;12.928;2023-05-07T02:14:54;98247.22;;;8.82
20730;BMP280;10526;50.850;12.928;2023-05-07T02:19:16;98255.16;;;8.75
20730;BMP280;10526;50.850;12.928;2023-05-07T02:23:39;98258.97;;;8.74
20730;BMP280;10526;50.850;12.928;2023-05-07T02:28:02;98261.25;;;8.72
20730;BMP280;10526;50.850;12.928;2023-05-07T02:32:34;98252.50;;;8.71
20730;BMP280;10526;50.850;12.928;2023-05-07T02:36:56;98249.47;;;8.73
20730;BMP280;10526;50.850;12.928;2023-05-07T02:41:20;98252.88;;;8.70
20730;BMP280;10526;50.850;12.928;2023-05-07T02:45:43;98248.34;;;8.74
20730;BMP280;10526;50.850;12.928;2023-05-07T02:50:07;98243.41;;;8.72
20730;BMP280;10526;50.850;12.928;2023-05-07T02:54:30;98248.72;;;8.72
20730;BMP280;10526;50.850;12.928;2023-05-07T02:58:52;98266.88;;;8.67
20730;BMP280;10526;50.850;12.928;2023-05-07T03:03:17;98259.31;;;8.65
20730;BMP280;10526;50.850;12.928;2023-05-07T03:07:40;98258.59;;;8.72
20730;BMP280;10526;50.850;12.928;2023-05-07T03:12:06;98251.72;;;8.71
20730;BMP280;10526;50.850;12.928;2023-05-07T03:16:29;98254.00;;;8.69
20730;BMP280;10526;50.850;12.928;2023-05-07T03:20:52;98249.84;;;8.64
20730;BMP280;10526;50.850;12.928;2023-05-07T03:25:14;98245.63;;;8.63
20730;BMP280;10526;50.850;12.928;2023-05-07T03:29:36;98249.84;;;8.64
20730;BMP280;10526;50.850;12.928;2023-05-07T03:33:59;98248.28;;;8.63
20730;BMP280;10526;50.850;12.928;2023-05-07T03:38:21;98257.00;;;8.67
20730;BMP280;10526;50.850;12.928;2023-05-07T03:42:43;98262.72;;;8.66
20730;BMP280;10526;50.850;12.928;2023-05-07T03:47:07;98272.19;;;8.67
20730;BMP280;10526;50.850;12.928;2023-05-07T03:51:30;98274.13;;;8.73
20730;BMP280;10526;50.850;12.928;2023-05-07T03:55:53;98278.69;;;8.73
20730;BMP280;10526;50.850;12.928;2023-05-07T04:00:16;98282.47;;;8.72
20730;BMP280;10526;50.850;12.928;2023-05-07T04:04:41;98285.13;;;8.79
20730;BMP280;10526;50.850;12.928;2023-05-07T04:09:04;98284.38;;;8.79
20730;BMP280;10526;50.850;12.928;2023-05-07T04:13:26;98289.31;;;8.73
20730;BMP280;10526;50.850;12.928;2023-05-07T04:17:49;98292.72;;;8.73
20730;BMP280;10526;50.850;12.928;2023-05-07T04:22:15;98283.97;;;8.69
20730;BMP280;10526;50.850;12.928;2023-05-07T04:26:37;98280.91;;;8.64
20730;BMP280;10526;50.850;12.928;2023-05-07T04:31:00;98286.56;;;8.59
20730;BMP280;10526;50.850;12.928;2023-05-07T04:35:24;98290.72;;;8.60
20730;BMP280;10526;50.850;12.928;2023-05-07T04:39:46;98279.72;;;8.54
20730;BMP280;10526;50.850;12.928;2023-05-07T04:44:09;98289.94;;;8.52
20730;BMP280;10526;50.850;12.928;2023-05-07T04:48:31;98294.53;;;8.55
20730;BMP280;10526;50.850;12.928;2023-05-07T04:52:55;98297.63;;;8.64
20730;BMP280;10526;50.850;12.928;2023-05-07T04:57:18;98296.91;;;8.78
20730;BMP280;10526;50.850;12.928;2023-05-07T05:01:40;98309.13;;;8.93
20730;BMP280;10526;50.850;12.928;2023-05-07T05:06:03;98308.38;;;8.96
20730;BMP280;10526;50.850;12.928;2023-05-07T05:10:28;98308.34;;;8.89
20730;BMP280;10526;50.850;12.928;2023-05-07T05:14:51;98318.19;;;8.85
20730;BMP280;10526;50.850;12.928;2023-05-07T05:19:14;98322.00;;;8.84
20730;BMP280;10526;50.850;12.928;2023-05-07T05:23:38;98318.19;;;8.85
20730;BMP280;10526;50.850;12.928;2023-05-07T05:28:00;98324.31;;;8.93
20730;BMP280;10526;50.850;12.928;2023-05-07T05:32:24;98322.44;;;9.00
20730;BMP280;10526;50.850;12.928;2023-05-07T05:36:49;98330.44;;;9.04
20730;BMP280;10526;50.850;12.928;2023-05-07T05:41:13;98336.50;;;9.05
20730;BMP280;10526;50.850;12.928;2023-05-07T05:45:35;98328.59;;;9.15
20730;BMP280;10526;50.850;12.928;2023-05-07T05:49:57;98341.13;;;9.29
20730;BMP280;10526;50.850;12.928;2023-05-07T05:54:20;98350.22;;;9.21
20730;BMP280;10526;50.850;12.928;2023-05-07T05:58:42;98353.63;;;9.11
20730;BMP280;10526;50.850;12.928;2023-05-07T06:03:05;98353.97;;;9.06
20730;BMP280;10526;50.850;12.928;2023-05-07T06:07:28;98364.59;;;9.06
20730;BMP280;10526;50.850;12.928;2023-05-07T06:11:50;98354.72;;;9.02
20730;BMP280;10526;50.850;12.928;2023-05-07T06:16:14;98353.22;;;9.16
20730;BMP280;10526;50.850;12.928;2023-05-07T06:20:37;98356.75;;;9.34
20730;BMP280;10526;50.850;12.928;2023-05-07T06:25:05;98353.38;;;9.59
20730;BMP280;10526;50.850;12.928;2023-05-07T06:29:29;98366.34;;;9.81
20730;BMP280;10526;50.850;12.928;2023-05-07T06:33:56;98367.13;;;9.86
20730;BMP280;10526;50.850;12.928;2023-05-07T06:38:24;98370.56;;;9.97
20730;BMP280;10526;50.850;12.928;2023-05-07T06:42:47;98375.84;;;9.86
20730;BMP280;10526;50.850;12.928;2023-05-07T06:47:19;98361.41;;;9.73
20730;BMP280;10526;50.850;12.928;2023-05-07T06:51:46;98373.94;;;9.76
20730;BMP280;10526;50.850;12.928;2023-05-07T06:56:08;98381.50;;;9.63
20730;BMP280;10526;50.850;12.928;2023-05-07T07:00:32;98378.44;;;9.54
20730;BMP280;10526;50.850;12.928;2023-05-07T07:04:54;98385.69;;;9.61
20730;BMP280;10526;50.850;12.928;2023-05-07T07:09:17;98383.81;;;9.65
20730;BMP280;10526;50.850;12.928;2023-05-07T07:13:39;98395.22;;;9.76
20730;BMP280;10526;50.850;12.928;2023-05-07T07:18:02;98389.16;;;9.93
20730;BMP280;10526;50.850;12.928;2023-05-07T07:22:25;98382.34;;;9.99
20730;BMP280;10526;50.850;12.928;2023-05-07T07:26:47;98385.38;;;9.94
20730;BMP280;10526;50.850;12.928;2023-05-07T07:31:10;98400.97;;;10.06
20730;BMP280;10526;50.850;12.928;2023-05-07T07:35:33;98398.72;;;10.33
20730;BMP280;10526;50.850;12.928;2023-05-07T07:39:56;98396.78;;;10.52
20730;BMP280;10526;50.850;12.928;2023-05-07T07:44:19;98405.91;;;10.72
20730;BMP280;10526;50.850;12.928;2023-05-07T07:48:47;98402.09;;;10.52
20730;BMP280;10526;50.850;12.928;2023-05-07T07:53:10;98406.72;;;10.44
20730;BMP280;10526;50.850;12.928;2023-05-07T07:57:32;98413.16;;;10.36
20730;BMP280;10526;50.850;12.928;2023-05-07T08:01:55;98426.81;;;10.59
20730;BMP280;10526;50.850;12.928;2023-05-07T08:06:21;98414.19;;;11.06
20730;BMP280;10526;50.850;12.928;2023-05-07T08:10:43;98411.19;;;11.77
20730;BMP280;10526;50.850;12.928;2023-05-07T08:15:14;98410.69;;;12.86
20730;BMP280;10526;50.850;12.928;2023-05-07T08:19:37;98426.09;;;12.72
20730;BMP280;10526;50.850;12.928;2023-05-07T08:24:02;98434.81;;;12.34
20730;BMP280;10526;50.850;12.928;2023-05-07T08:28:24;98424.38;;;12.06
20730;BMP280;10526;50.850;12.928;2023-05-07T08:32:46;98429.31;;;12.07
20730;BMP280;10526;50.850;12.928;2023-05-07T08:37:09;98418.94;;;12.96
20730;BMP280;10526;50.850;12.928;2023-05-07T08:41:32;98416.69;;;13.82
20730;BMP280;10526;50.850;12.928;2023-05-07T08:45:54;98425.34;;;14.60
20730;BMP280;10526;50.850;12.928;2023-05-07T08:50:21;98433.56;;;13.79
20730;BMP280;10526;50.850;12.928;2023-05-07T08:54:45;98435.47;;;13.78
20730;BMP280;10526;50.850;12.928;2023-05-07T08:59:08;98426.81;;;13.40
20730;BMP280;10526;50.850;12.928;2023-05-07T09:03:31;98435.72;;;13.00
20730;BMP280;10526;50.850;12.928;2023-05-07T09:07:53;98439.22;;;12.93
20730;BMP280;10526;50.850;12.928;2023-05-07T09:12:21;98430.13;;;13.21
20730;BMP280;10526;50.850;12.928;2023-05-07T09:16:43;98434.22;;;12.99
20730;BMP280;10526;50.850;12.928;2023-05-07T09:21:05;98430.09;;;13.25
20730;BMP280;10526;50.850;12.928;2023-05-07T09:25:33;98437.44;;;13.47
20730;BMP280;10526;50.850;12.928;2023-05-07T09:30:08;98436.63;;;14.04
20730;BMP280;10526;50.850;12.928;2023-05-07T09:34:31;98440.28;;;13.64
20730;BMP280;10526;50.850;12.928;2023-05-07T09:38:55;98435.59;;;13.71
20730;BMP280;10526;50.850;12.928;2023-05-07T09:43:18;98445.16;;;13.69
20730;BMP280;10526;50.850;12.928;2023-05-07T09:47:49;98441.56;;;14.29
20730;BMP280;10526;50.850;12.928;2023-05-07T09:52:14;98437.84;;;15.62
20730;BMP280;10526;50.850;12.928;2023-05-07T09:56:46;98442.84;;;16.25
20730;BMP280;10526;50.850;12.928;2023-05-07T10:01:12;98443.38;;;15.71
20730;BMP280;10526;50.850;12.928;2023-05-07T10:05:37;98444.66;;;15.83
20730;BMP280;10526;50.850;12.928;2023-05-07T10:10:01;98438.31;;;16.06
20730;BMP280;10526;50.850;12.928;2023-05-07T10:14:29;98442.63;;;15.71
20730;BMP280;10526;50.850;12.928;2023-05-07T10:18:53;98447.03;;;15.45
20730;BMP280;10526;50.850;12.928;2023-05-07T10:23:23;98457.78;;;15.45
20730;BMP280;10526;50.850;12.928;2023-05-07T10:27:52;98453.78;;;16.34
20730;BMP280;10526;50.850;12.928;2023-05-07T10:32:47;98446.25;;;18.24
20730;BMP280;10526;50.850;12.928;2023-05-07T10:37:18;98461.78;;;19.07
20730;BMP280;10526;50.850;12.928;2023-05-07T10:41:42;98454.06;;;19.27
20730;BMP280;10526;50.850;12.928;2023-05-07T10:46:19;98450.28;;;19.74
20730;BMP280;10526;50.850;12.928;2023-05-07T10:51:21;98456.09;;;19.54
20730;BMP280;10526;50.850;12.928;2023-05-07T11:00:46;98437.78;;;21.67
20730;BMP280;10526;50.850;12.928;2023-05-07T11:05:23;98438.28;;;21.32
20730;BMP280;10526;50.850;12.928;2023-05-07T11:10:03;98425.69;;;19.23
20730;BMP280;10526;50.850;12.928;2023-05-07T11:14:51;98433.09;;;17.78
20730;BMP280;10526;50.850;12.928;2023-05-07T11:19:51;98439.34;;;16.12
20730;BMP280;10526;50.850;12.928;2023-05-07T11:24:42;98433.66;;;15.77
20730;BMP280;10526;50.850;12.928;2023-05-07T11:29:19;98430.88;;;15.65
20730;BMP280;10526;50.850;12.928;2023-05-07T11:33:47;98418.59;;;15.11
20730;BMP280;10526;50.850;12.928;2023-05-07T11:38:13;98422.72;;;14.96
20730;BMP280;10526;50.850;12.928;2023-05-07T11:42:38;98422.75;;;14.56
20730;BMP280;10526;50.850;12.928;2023-05-07T11:47:00;98427.97;;;15.03
20730;BMP280;10526;50.850;12.928;2023-05-07T11:51:25;98425.38;;;14.80
20730;BMP280;10526;50.850;12.928;2023-05-07T11:55:53;98431.69;;;14.89
20730;BMP280;10526;50.850;12.928;2023-05-07T12:00:17;98418.16;;;14.33
20730;BMP280;10526;50.850;12.928;2023-05-07T12:04:39;98433.53;;;14.06
20730;BMP280;10526;50.850;12.928;2023-05-07T12:09:01;98428.66;;;13.74
20730;BMP280;10526;50.850;12.928;2023-05-07T12:13:25;98433.31;;;13.70
20730;BMP280;10526;50.850;12.928;2023-05-07T12:17:48;98436.94;;;13.83
20730;BMP280;10526;50.850;12.928;2023-05-07T12:22:11;98428.66;;;14.01
20730;BMP280;10526;50.850;12.928;2023-05-07T12:26:38;98412.47;;;13.81
20730;BMP280;10526;50.850;12.928;2023-05-07T12:31:02;98410.13;;;14.33
20730;BMP280;10526;50.850;12.928;2023-05-07T12:35:36;98417.41;;;14.33
20730;BMP280;10526;50.850;12.928;2023-05-07T12:40:10;98413.03;;;13.96
20730;BMP280;10526;50.850;12.928;2023-05-07T12:44:34;98409.97;;;13.97
20730;BMP280;10526;50.850;12.928;2023-05-07T12:48:56;98422.88;;;14.02
20730;BMP280;10526;50.850;12.928;2023-05-07T12:53:22;98416.41;;;14.23
20730;BMP280;10526;50.850;12.928;2023-05-07T12:57:49;98435.34;;;14.36
20730;BMP280;10526;50.850;12.928;2023-05-07T13:02:12;98409.00;;;14.54
20730;BMP280;10526;50.850;12.928;2023-05-07T13:06:35;98406.44;;;14.47
20730;BMP280;10526;50.850;12.928;2023-05-07T13:10:59;98416.31;;;14.74
20730;BMP280;10526;50.850;12.928;2023-05-07T13:15:25;98419.00;;;14.50
20730;BMP280;10526;50.850;12.928;2023-05-07T13:19:48;98418.94;;;14.54
20730;BMP280;10526;50.850;12.928;2023-05-07T13:24:11;98413.00;;;14.66
20730;BMP280;10526;50.850;12.928;2023-05-07T13:28:33;98412.50;;;14.71
20730;BMP280;10526;50.850;12.928;2023-05-07T13:32:56;98413.41;;;14.41
20730;BMP280;10526;50.850;12.928;2023-05-07T13:37:21;98402.34;;;14.62
20730;BMP280;10526;50.850;12.928;2023-05-07T13:47:46;98390.47;;;15.00
20730;BMP280;10526;50.850;12.928;2023-05-07T13:52:09;98378.28;;;15.15
20730;BMP280;10526;50.850;12.928;2023-05-07T13:56:32;98392.84;;;14.58
20730;BMP280;10526;50.850;12.928;2023-05-07T14:00:54;98387.56;;;14.54
20730;BMP280;10526;50.850;12.928;2023-05-07T14:05:17;98388.69;;;14.53
20730;BMP280;10526;50.850;12.928;2023-05-07T14:09:40;98385.63;;;14.75
20730;BMP280;10526;50.850;12.928;2023-05-07T14:14:02;98392.56;;;14.92
20730;BMP280;10526;50.850;12.928;2023-05-07T14:18:24;98388.28;;;14.94
20730;BMP280;10526;50.850;12.928;2023-05-07T14:22:46;98378.31;;;14.95
20730;BMP280;10526;50.850;12.928;2023-05-07T14:33:41;98363.75;;;14.37
20730;BMP280;10526;50.850;12.928;2023-05-07T14:38:03;98374.53;;;14.33
20730;BMP280;10526;50.850;12.928;2023-05-07T14:42:25;98375.81;;;14.25
20730;BMP280;10526;50.850;12.928;2023-05-07T14:46:47;98379.84;;;14.13
20730;BMP280;10526;50.850;12.928;2023-05-07T14:51:10;98380.13;;;14.19
20730;BMP280;10526;50.850;12.928;2023-05-07T14:55:34;98377.28;;;14.49
20730;BMP280;10526;50.850;12.928;2023-05-07T14:59:57;98382.13;;;14.58
20730;BMP280;10526;50.850;12.928;2023-05-07T15:04:18;98390.31;;;14.51
20730;BMP280;10526;50.850;12.928;2023-05-07T15:08:41;98392.34;;;14.43
20730;BMP280;10526;50.850;12.928;2023-05-07T15:13:03;98384.31;;;14.43
20730;BMP280;10526;50.850;12.928;2023-05-07T15:17:25;98397.78;;;14.59
20730;BMP280;10526;50.850;12.928;2023-05-07T15:21:48;98397.91;;;14.72
20730;BMP280;10526;50.850;12.928;2023-05-07T15:26:10;98391.72;;;14.35
20730;BMP280;10526;50.850;12.928;2023-05-07T15:30:33;98396.97;;;14.19
20730;BMP280;10526;50.850;12.928;2023-05-07T15:34:55;98397.91;;;14.32
20730;BMP280;10526;50.850;12.928;2023-05-07T15:39:17;98386.78;;;14.34
20730;BMP280;10526;50.850;12.928;2023-05-07T15:43:48;98420.22;;;14.26
20730;BMP280;10526;50.850;12.928;2023-05-07T15:48:11;98390.50;;;14.17
20730;BMP280;10526;50.850;12.928;2023-05-07T15:52:34;98383.25;;;13.94
20730;BMP280;10526;50.850;12.928;2023-05-07T15:56:56;98387.06;;;13.93
20730;BMP280;10526;50.850;12.928;2023-05-07T16:01:19;98378.22;;;13.96
20730;BMP280;10526;50.850;12.928;2023-05-07T16:05:42;98380.94;;;13.92
20730;BMP280;10526;50.850;12.928;2023-05-07T16:10:05;98384.16;;;13.84
20730;BMP280;10526;50.850;12.928;2023-05-07T16:14:29;98396.41;;;13.81
20730;BMP280;10526;50.850;12.928;2023-05-07T16:18:51;98389.25;;;13.78
20730;BMP280;10526;50.850;12.928;2023-05-07T16:23:13;98384.78;;;13.68
20730;BMP280;10526;50.850;12.928;2023-05-07T16:27:35;98395.53;;;13.64
20730;BMP280;10526;50.850;12.928;2023-05-07T16:31:57;98391.75;;;13.62
20730;BMP280;10526;50.850;12.928;2023-05-07T16:36:19;98390.66;;;13.59
20730;BMP280;10526;50.850;12.928;2023-05-07T16:40:41;98400.72;;;13.48
20730;BMP280;10526;50.850;12.928;2023-05-07T16:45:04;98409.13;;;13.46
20730;BMP280;10526;50.850;12.928;2023-05-07T16:49:27;98412.34;;;13.38
20730;BMP280;10526;50.850;12.928;2023-05-07T16:53:50;98401.66;;;13.34
20730;BMP280;10526;50.850;12.928;2023-05-07T16:58:13;98399.53;;;13.22
20730;BMP280;10526;50.850;12.928;2023-05-07T17:02:36;98402.00;;;13.09
20730;BMP280;10526;50.850;12.928;2023-05-07T17:06:58;98405.59;;;12.96
20730;BMP280;10526;50.850;12.928;2023-05-07T17:11:20;98412.16;;;12.91
20730;BMP280;10526;50.850;12.928;2023-05-07T17:15:43;98409.63;;;12.77
20730;BMP280;10526;50.850;12.928;2023-05-07T17:20:08;98426.19;;;12.61
20730;BMP280;10526;50.850;12.928;2023-05-07T17:24:30;98427.84;;;12.51
20730;BMP280;10526;50.850;12.928;2023-05-07T17:28:53;98424.47;;;12.40
20730;BMP280;10526;50.850;12.928;2023-05-07T17:33:15;98438.28;;;12.31
20730;BMP280;10526;50.850;12.928;2023-05-07T17:37:43;98433.84;;;12.14
20730;BMP280;10526;50.850;12.928;2023-05-07T17:42:13;98456.78;;;12.04
20730;BMP280;10526;50.850;12.928;2023-05-07T17:46:35;98449.25;;;11.92
20730;BMP280;10526;50.850;12.928;2023-05-07T17:51:01;98454.31;;;11.72
20730;BMP280;10526;50.850;12.928;2023-05-07T17:55:24;98461.63;;;11.54
20730;BMP280;10526;50.850;12.928;2023-05-07T17:59:46;98452.56;;;11.41
20730;BMP280;10526;50.850;12.928;2023-05-07T18:04:09;98465.16;;;11.30
20730;BMP280;10526;50.850;12.928;2023-05-07T18:08:33;98462.94;;;11.17
20730;BMP280;10526;50.850;12.928;2023-05-07T18:12:55;98462.56;;;11.05
20730;BMP280;10526;50.850;12.928;2023-05-07T18:17:17;98469.44;;;10.91
20730;BMP280;10526;50.850;12.928;2023-05-07T18:21:40;98471.75;;;10.79
20730;BMP280;10526;50.850;12.928;2023-05-07T18:26:02;98479.75;;;10.64
20730;BMP280;10526;50.850;12.928;2023-05-07T18:30:27;98475.94;;;10.44
20730;BMP280;10526;50.850;12.928;2023-05-07T18:34:49;98483.13;;;10.26
20730;BMP280;10526;50.850;12.928;2023-05-07T18:39:11;98489.16;;;10.08
20730;BMP280;10526;50.850;12.928;2023-05-07T18:43:33;98484.56;;;9.91
20730;BMP280;10526;50.850;12.928;2023-05-07T18:47:55;98491.38;;;9.78
20730;BMP280;10526;50.850;12.928;2023-05-07T18:52:18;98487.53;;;9.68
20730;BMP280;10526;50.850;12.928;2023-05-07T18:56:42;98492.78;;;9.54
20730;BMP280;10526;50.850;12.928;2023-05-07T19:01:04;98489.31;;;9.43
20730;BMP280;10526;50.850;12.928;2023-05-07T19:05:29;98494.97;;;9.34
20730;BMP280;10526;50.850;12.928;2023-05-07T19:09:51;98504.38;;;9.24
20730;BMP280;10526;50.850;12.928;2023-05-07T19:14:26;98510.00;;;9.16
20730;BMP280;10526;50.850;12.928;2023-05-07T19:18:48;98505.41;;;9.06
20730;BMP280;10526;50.850;12.928;2023-05-07T19:23:10;98513.34;;;9.02
20730;BMP280;10526;50.850;12.928;2023-05-07T19:27:33;98530.34;;;8.94
20730;BMP280;10526;50.850;12.928;2023-05-07T19:31:55;98526.13;;;8.89
20730;BMP280;10526;50.850;12.928;2023-05-07T19:36:17;98531.81;;;8.84
20730;BMP280;10526;50.850;12.928;2023-05-07T19:40:40;98527.94;;;8.78
20730;BMP280;10526;50.850;12.928;2023-05-07T19:45:03;98526.78;;;8.72
20730;BMP280;10526;50.850;12.928;2023-05-07T19:49:25;98541.88;;;8.64
20730;BMP280;10526;50.850;12.928;2023-05-07T19:53:47;98542.16;;;8.56
20730;BMP280;10526;50.850;12.928;2023-05-07T19:58:09;98558.84;;;8.53
20730;BMP280;10526;50.850;12.928;2023-05-07T20:02:32;98556.88;;;8.50
20730;BMP280;10526;50.850;12.928;2023-05-07T20:06:55;98561.75;;;8.44
20730;BMP280;10526;50.850;12.928;2023-05-07T20:11:18;98566.97;;;8.33
20730;BMP280;10526;50.850;12.928;2023-05-07T20:15:41;98570.34;;;8.30
20730;BMP280;10526;50.850;12.928;2023-05-07T20:20:03;98579.41;;;8.29
20730;BMP280;10526;50.850;12.928;2023-05-07T20:24:26;98562.63;;;8.21
20730;BMP280;10526;50.850;12.928;2023-05-07T20:28:48;98568.22;;;8.13
20730;BMP280;10526;50.850;12.928;2023-05-07T20:33:11;98576.06;;;8.02
20730;BMP280;10526;50.850;12.928;2023-05-07T20:37:34;98569.59;;;8.00
20730;BMP280;10526;50.850;12.928;2023-05-07T20:41:56;98575.16;;;7.94
20730;BMP280;10526;50.850;12.928;2023-05-07T20:46:20;98575.50;;;7.89
20730;BMP280;10526;50.850;12.928;2023-05-07T20:50:44;98569.34;;;7.82
20730;BMP280;10526;50.850;12.928;2023-05-07T20:55:07;98577.63;;;7.77
20730;BMP280;10526;50.850;12.928;2023-05-07T20:59:29;98576.34;;;7.67
20730;BMP280;10526;50.850;12.928;2023-05-07T21:03:51;98575.50;;;7.63
20730;BMP280;10526;50.850;12.928;2023-05-07T21:08:14;98586.00;;;7.56
20730;BMP280;10526;50.850;12.928;2023-05-07T21:12:37;98580.22;;;7.47
20730;BMP280;10526;50.850;12.928;2023-05-07T21:17:00;98593.47;;;7.47
20730;BMP280;10526;50.850;12.928;2023-05-07T21:21:23;98595.28;;;7.43
20730;BMP280;10526;50.850;12.928;2023-05-07T21:25:44;98592.22;;;7.40
20730;BMP280;10526;50.850;12.928;2023-05-07T21:30:09;98609.13;;;7.32
20730;BMP280;10526;50.850;12.928;2023-05-07T21:34:32;98608.28;;;7.28
20730;BMP280;10526;50.850;12.928;2023-05-07T21:38:54;98613.84;;;7.20
20730;BMP280;10526;50.850;12.928;2023-05-07T21:43:16;98620.00;;;7.04
20730;BMP280;10526;50.850;12.928;2023-05-07T21:47:38;98627.47;;;6.99
20730;BMP280;10526;50.850;12.928;2023-05-07T21:52:00;98623.97;;;6.95
20730;BMP280;10526;50.850;12.928;2023-05-07T21:56:22;98624.28;;;6.90
20730;BMP280;10526;50.850;12.928;2023-05-07T22:06:40;98623.88;;;6.68
20730;BMP280;10526;50.850;12.928;2023-05-07T22:11:02;98635.72;;;6.55
20730;BMP280;10526;50.850;12.928;2023-05-07T22:15:24;98629.88;;;6.46
20730;BMP280;10526;50.850;12.928;2023-05-07T22:19:46;98631.25;;;6.40
20730;BMP280;10526;50.850;12.928;2023-05-07T22:24:08;98632.22;;;6.31
20730;BMP280;10526;50.850;12.928;2023-05-07T22:28:30;98634.34;;;6.26
20730;BMP280;10526;50.850;12.928;2023-05-07T22:32:52;98634.56;;;6.37
20730;BMP280;10526;50.850;12.928;2023-05-07T22:37:14;98634.56;;;6.37
20730;BMP280;10526;50.850;12.928;2023-05-07T22:41:37;98639.19;;;6.40
20730;BMP280;10526;50.850;12.928;2023-05-07T22:46:02;98635.59;;;6.48
20730;BMP280;10526;50.850;12.928;2023-05-07T22:50:24;98647.56;;;6.61
20730;BMP280;10526;50.850;12.928;2023-05-07T22:54:46;98634.94;;;6.93
20730;BMP280;10526;50.850;12.928;2023-05-07T22:59:08;98639.75;;;7.07
20730;BMP280;10526;50.850;12.928;2023-05-07T23:03:30;98636.25;;;7.03
20730;BMP280;10526;50.850;12.928;2023-05-07T23:07:53;98634.53;;;7.14
20730;BMP280;10526;50.850;12.928;2023-05-07T23:12:16;98639.25;;;7.24
20730;BMP280;10526;50.850;12.928;2023-05-07T23:16:38;98628.59;;;7.21
20730;BMP280;10526;50.850;12.928;2023-05-07T23:21:01;98635.47;;;7.25
20730;BMP280;10526;50.850;12.928;2023-05-07T23:25:23;98638.56;;;7.27
20730;BMP280;10526;50.850;12.928;2023-05-07T23:29:45;98640.78;;;7.25
20730;BMP280;10526;50.850;12.928;2023-05-07T23:34:07;98639.25;;;7.24
20730;BMP280;10526;50.850;12.928;2023-05-07T23:38:29;98639.97;;;7.21
20730;BMP280;10526;50.850;12.928;2023-05-07T23:42:52;98638.38;;;7.17
20730;BMP280;10526;50.850;12.928;2023-05-07T23:47:14;98641.25;;;7.08
20730;BMP280;10526;50.850;12.928;2023-05-07T23:51:37;98635.78;;;6.97
20730;BMP280;10526;50.850;12.928;2023-05-07T23:55:58;98627.75;;;6.94
